Urbana, AR (71768)

1:08 PM CST on March 02, 2015 (GMT -0600)
South Arkansas Regional At Goodwin | Change Station
CLOSE
Current Station
Airport
Location: El Dorado,
Elevation: 276 ft
Nearby Weather Stations
Active Advisory: Flood Warning Active Notice: Public Information Statement

Elev 276 ft 33.22 °N, 92.81 °W | Updated 15 minutes ago

Overcast
Overcast
38 °F
Feels Like 32 °F
N
8
Wind Variable Wind from NNE

Today
High -- | Low -- °F
--% Chance of Precip.
Yesterday
High -- | Low -- °F
Precip. -- in
6:36 AM 6:07 PM
Waxing Gibbous, 92% visible
Pressure 30.37 in
Visibility 4.0 miles
Clouds Overcast 300 ft
Windchill 32 °F
Dew Point 36 °F
Humidity 93%
Rainfall 0.00 in
Snow Depth Not available.
UV 2 out of 12
Pollen 2.70 out of 12
Air Quality Not available.
Flu Activity Not available.
METAR KELD 021853Z AUTO 02007KT 4SM BR OVC003 03/02 A3037 RMK AO2 SLP283 T00330022

More Conditions Fewer Conditions

Pressure 30.37 in
Visibility 4.0 miles
Clouds Overcast 300 ft
Windchill 32 °F
Dew Point 36 °F
Humidity 93%
Rainfall 0.00 in
Snow Depth Not available.
UV 2 out of 12
Pollen 2.70 out of 12
Air Quality Not available.
Flu Activity Not available.
METAR KELD 021853Z AUTO 02007KT 4SM BR OVC003 03/02 A3037 RMK AO2 SLP283 T00330022

More Conditions Fewer Conditions

Nowcast | as of 10:47 am CST on March 2, 2015

Scattered areas of light rain continue mainly from nachitoches to Clark in in Louisiana...to Arkansas and Magnolia AR. Also...movement of this light rain was to the northeast near 30 mph. Otherwise...light drizzle and light fog continue over the entire area with little change anytime soon. Additional rainfall amounts will generally be on the order of a trace to a few hundreths of an inch.

×

10-Day Weather Forecast

Almanac

Astronomy

Mar. 02, 2015 Rise Set
Actual Time
Civil Twilight
Nautical Twilight
Astronomical Twilight
Moon
Length of Visible Light
Length of Day
Tomorrow will be .
, % of the Moon is Illuminated

Today's Extremes

State Highs State Lows

Community

WunderPhotos

Upload Photos

1,801,913 photos uploaded!

WunderBlogs® & News

Nearby

Air Quality

  Air Quality AQ Index Pollutant
Not available.

Snow Depth

Station Depth Elevation

Earthquake Activity

City Distance Mag. Time & Date
Minimum magnitude displayed is 2.5.

Coastal Water Temperatures

Place Temperature

Nearby Weather Stations

Flood Warning
Statement as of 10:31 AM CST on March 02, 2015

The Flood Warning continues for
the Ouachita River at Thatcher l&d.
* Until late Tuesday night... or until the warning is cancelled.
* At 6:00 am Monday the stage was 79.3 feet.
* Minor flooding is occurring and minor flooding is forecast.
* Flood stage is 79.0 feet.
* Forecast... the river will continue to fall to below flood stage by
this evening.





             Fld observed forecast 7 am
location stg stg day time Tue Wed Thu Fri Sat

Ouachita River
Thatcher l 79 79.3 Mon 06 am 78.7 78.3 77.6 77.0 77.0




Lat... Lon 3311 9223 3323 9236 3329 9261 3338 9247
3333 9226 3322 9212